createdAt,value
2022-08-12T00:01:10.359Z,101971.66
2022-08-12T00:03:56.028Z,101957.59
2022-08-12T00:06:43.926Z,101938.75
2022-08-12T00:09:29.675Z,101944.06
2022-08-12T00:12:15.459Z,101945.47
2022-08-12T00:15:02.415Z,101931.59
2022-08-12T00:17:48.249Z,101937.53
2022-08-12T00:20:33.634Z,101928.25
2022-08-12T00:23:20.756Z,101926.00
2022-08-12T00:26:23.597Z,101913.81
2022-08-12T00:29:11.663Z,101917.00
2022-08-12T00:31:58.064Z,101913.25
2022-08-12T00:34:45.880Z,101909.81
2022-08-12T00:37:34.418Z,101911.06
2022-08-12T00:40:22.519Z,101892.75
2022-08-12T00:42:49.549Z,101881.00
2022-08-12T00:45:17.678Z,101881.63
2022-08-12T00:47:45.996Z,101870.34
2022-08-12T00:50:19.398Z,101856.31
2022-08-12T00:52:49.061Z,101846.97
2022-08-12T00:55:20.010Z,101850.94
2022-08-12T00:57:50.013Z,101838.50
2022-08-12T01:00:21.465Z,101834.81
2022-08-12T01:02:52.611Z,101825.00
2022-08-12T01:05:40.462Z,101822.84
2022-08-12T01:08:27.426Z,101812.56
2022-08-12T01:11:16.090Z,101814.94
2022-08-12T01:13:50.950Z,101804.53
2022-08-12T01:16:23.154Z,101794.47
2022-08-12T01:18:56.208Z,101788.84
2022-08-12T01:21:46.689Z,101788.53
2022-08-12T01:24:38.195Z,101786.00
2022-08-12T01:27:10.903Z,101787.75
2022-08-12T01:29:44.347Z,101767.25
2022-08-12T01:32:14.428Z,101752.47
2022-08-12T01:34:50.489Z,101754.09
2022-08-12T01:37:30.439Z,101749.31
2022-08-12T01:40:35.558Z,101742.09
2022-08-12T01:42:52.120Z,101737.25
2022-08-12T01:45:24.611Z,101728.66
2022-08-12T01:48:06.262Z,101718.50
2022-08-12T01:50:51.213Z,101712.84
2022-08-12T01:53:21.041Z,101701.53
2022-08-12T01:55:51.768Z,101694.75
2022-08-12T01:58:28.829Z,101687.50
2022-08-12T02:01:01.362Z,101691.53
2022-08-12T02:04:05.566Z,101679.13
2022-08-12T02:07:00.874Z,101684.59
2022-08-12T02:10:05.715Z,101677.63
2022-08-12T02:12:49.660Z,101671.47
2022-08-12T02:15:24.990Z,101673.84
2022-08-12T02:18:12.319Z,101662.78
2022-08-12T02:20:52.390Z,101651.69
2022-08-12T02:23:27.125Z,101632.59
2022-08-12T02:26:00.475Z,101633.63
2022-08-12T02:28:30.615Z,101646.59
2022-08-12T02:31:04.890Z,101629.66
2022-08-12T02:33:34.099Z,101625.78
2022-08-12T02:36:03.691Z,101621.63
2022-08-12T02:38:32.212Z,101626.13
2022-08-12T02:41:03.555Z,101616.88
2022-08-12T02:43:38.816Z,101604.03
2022-08-12T02:46:14.821Z,101611.94
2022-08-12T02:48:49.139Z,101601.72
2022-08-12T02:51:21.428Z,101612.22
2022-08-12T02:54:04.549Z,101612.56
2022-08-12T02:56:33.994Z,101609.50
2022-08-12T02:59:03.415Z,101617.53
2022-08-12T03:01:34.288Z,101605.75
2022-08-12T03:04:05.398Z,101603.38
2022-08-12T03:06:39.071Z,101600.56
2022-08-12T03:09:16.502Z,101599.38
2022-08-12T03:11:51.318Z,101590.25
2022-08-12T03:14:26.845Z,101592.31
2022-08-12T03:17:11.388Z,101596.47
2022-08-12T03:20:10.488Z,101595.41
2022-08-12T03:22:28.097Z,101590.00
2022-08-12T03:25:01.952Z,101594.13
2022-08-12T03:27:31.886Z,101591.59
2022-08-12T03:30:01.515Z,101573.75
2022-08-12T03:32:36.221Z,101582.19
2022-08-12T03:35:07.887Z,101590.84
2022-08-12T03:37:38.436Z,101586.31
2022-08-12T03:40:11.505Z,101582.31
2022-08-12T03:43:04.974Z,101583.03
2022-08-12T03:45:54.247Z,101584.19
2022-08-12T03:48:43.792Z,101573.34
2022-08-12T03:51:29.955Z,101575.78
2022-08-12T03:54:15.973Z,101577.16
2022-08-12T03:57:01.497Z,101571.84
2022-08-12T03:59:49.889Z,101567.81
2022-08-12T04:02:19.231Z,101569.06
2022-08-12T04:04:47.352Z,101574.00
2022-08-12T04:07:18.150Z,101564.72
2022-08-12T04:09:48.019Z,101561.72
2022-08-12T04:12:40.237Z,101548.06
2022-08-12T04:15:20.083Z,101553.03
2022-08-12T04:18:07.584Z,101551.66
2022-08-12T04:20:37.358Z,101543.25
2022-08-12T04:23:08.486Z,101560.66
2022-08-12T04:25:39.429Z,101553.78
2022-08-12T04:28:13.269Z,101552.25
2022-08-12T04:30:41.923Z,101543.94
2022-08-12T04:33:12.561Z,101548.19
2022-08-12T04:35:40.768Z,101539.72
2022-08-12T04:38:08.978Z,101537.06
2022-08-12T04:40:37.538Z,101517.19
2022-08-12T04:43:07.040Z,101539.47
2022-08-12T04:45:56.458Z,101541.69
2022-08-12T04:48:25.822Z,101542.72
2022-08-12T04:50:53.883Z,101531.44
2022-08-12T04:53:21.997Z,101534.16
2022-08-12T04:55:53.635Z,101521.09
2022-08-12T04:58:29.383Z,101517.56
2022-08-12T05:00:58.344Z,101540.78
2022-08-12T05:03:28.657Z,101542.13
2022-08-12T05:06:26.247Z,101543.72
2022-08-12T05:08:59.866Z,101529.28
2022-08-12T05:11:28.730Z,101544.44
2022-08-12T05:13:59.830Z,101539.38
2022-08-12T05:16:32.556Z,101527.63
2022-08-12T05:19:18.462Z,101523.44
2022-08-12T05:21:50.680Z,101540.09
2022-08-12T05:24:18.605Z,101534.47
2022-08-12T05:26:47.266Z,101551.69
2022-08-12T05:30:08.355Z,101559.72
2022-08-12T05:32:06.312Z,101561.09
2022-08-12T05:34:35.565Z,101568.16
2022-08-12T05:37:04.033Z,101588.66
2022-08-12T05:39:32.005Z,101604.22
2022-08-12T05:42:00.137Z,101628.53
2022-08-12T05:44:28.225Z,101655.25
2022-08-12T05:46:58.748Z,101681.19
2022-08-12T05:49:29.657Z,101699.88
2022-08-12T05:51:59.009Z,101717.66
2022-08-12T05:54:47.666Z,101722.75
2022-08-12T05:57:15.534Z,101744.25
2022-08-12T05:59:43.543Z,101755.31
2022-08-12T06:02:13.544Z,101753.34
2022-08-12T06:04:42.041Z,101778.47
2022-08-12T06:07:59.848Z,101785.66
2022-08-12T06:10:00.931Z,101809.13
2022-08-12T06:12:29.042Z,101834.50
2022-08-12T06:14:57.056Z,101856.25
2022-08-12T06:17:25.493Z,101890.19
2022-08-12T06:20:29.542Z,101904.00
2022-08-12T06:22:43.317Z,101908.59
2022-08-12T06:25:17.618Z,101926.91
2022-08-12T06:28:05.856Z,101924.19
2022-08-12T06:30:39.349Z,101950.72
2022-08-12T06:33:22.108Z,101978.94
2022-08-12T06:35:52.321Z,101963.50
2022-08-12T06:38:28.304Z,101805.75
2022-08-12T06:41:15.001Z,101120.00
2022-08-12T06:44:05.556Z,100825.00
2022-08-12T06:46:32.504Z,101226.13
2022-08-12T06:49:00.933Z,101326.25
2022-08-12T06:51:32.554Z,101419.16
2022-08-12T06:54:18.705Z,101487.47
2022-08-12T06:57:57.019Z,101502.16
2022-08-12T06:59:52.302Z,101507.25
2022-08-12T07:02:22.939Z,101502.91
2022-08-12T07:04:52.684Z,101488.44
2022-08-12T07:07:21.367Z,101499.25
2022-08-12T07:10:05.527Z,101504.59
2022-08-12T07:12:37.545Z,101493.28
2022-08-12T07:15:06.572Z,101487.22
2022-08-12T07:17:38.859Z,101506.91
2022-08-12T07:20:29.516Z,101470.16
2022-08-12T07:23:01.773Z,101484.13
2022-08-12T07:25:40.402Z,101489.66
2022-08-12T07:28:16.381Z,101502.13
2022-08-12T07:30:46.563Z,101501.88
2022-08-12T07:33:18.691Z,101509.91
2022-08-12T07:35:48.394Z,101496.91
2022-08-12T07:38:30.705Z,101506.69
2022-08-12T07:41:04.204Z,101522.13
2022-08-12T07:43:39.114Z,101494.75
2022-08-12T07:46:09.600Z,101516.78
2022-08-12T07:48:40.712Z,101511.78
2022-08-12T07:51:12.004Z,101514.59
2022-08-12T07:54:00.979Z,101500.41
2022-08-12T07:56:33.127Z,101509.44
2022-08-12T07:59:03.193Z,101496.75
2022-08-12T08:01:32.855Z,101506.97
2022-08-12T08:04:19.797Z,101515.09
2022-08-12T08:06:49.266Z,101505.63
2022-08-12T08:09:21.323Z,101500.09
2022-08-12T08:12:09.353Z,101502.47
2022-08-12T08:14:50.975Z,101490.78
2022-08-12T08:17:19.163Z,101494.03
2022-08-12T08:20:02.694Z,101506.31
2022-08-12T08:22:40.765Z,101495.63
2022-08-12T08:25:34.589Z,101486.56
2022-08-12T08:28:03.051Z,101492.25
2022-08-12T08:30:36.754Z,101480.22
2022-08-12T08:33:23.096Z,101493.84
2022-08-12T08:35:59.085Z,101486.59
2022-08-12T08:42:15.318Z,101477.28
2022-08-12T08:44:16.780Z,101461.38
2022-08-12T08:47:05.490Z,101461.75
2022-08-12T08:49:37.939Z,101472.69
2022-08-12T08:52:39.075Z,101450.91
2022-08-12T08:55:14.004Z,101459.63
2022-08-12T08:57:44.695Z,101471.72
2022-08-12T09:00:19.448Z,101453.91
2022-08-12T09:02:58.647Z,101453.19
2022-08-12T09:05:28.047Z,101440.63
2022-08-12T09:12:07.572Z,101427.66
2022-08-12T09:17:06.873Z,101417.81
2022-08-12T09:19:35.046Z,101394.41
2022-08-12T09:22:03.123Z,101416.28
2022-08-12T09:24:32.927Z,101419.13
2022-08-12T09:27:03.442Z,101410.81
2022-08-12T09:30:16.034Z,101415.84
2022-08-12T09:32:56.635Z,101380.75
2022-08-12T09:35:44.613Z,101397.25
2022-08-12T09:38:28.027Z,101384.16
2022-08-12T09:42:08.370Z,101392.47
2022-08-12T09:44:07.161Z,101372.38
2022-08-12T09:46:58.064Z,101390.06
2022-08-12T09:49:28.579Z,101376.16
2022-08-12T09:52:05.098Z,101350.41
2022-08-12T09:54:35.406Z,101356.66
2022-08-12T09:58:08.270Z,101354.06
2022-08-12T10:00:13.994Z,101359.09
2022-08-12T10:03:32.681Z,101350.91
2022-08-12T10:06:20.138Z,101344.16
2022-08-12T10:08:52.634Z,101354.44
2022-08-12T10:12:10.590Z,101337.06
2022-08-12T10:14:34.372Z,101323.56
2022-08-12T10:17:03.086Z,101326.03
2022-08-12T10:19:37.956Z,101337.66
2022-08-12T10:22:16.838Z,101324.22
2022-08-12T10:25:17.189Z,101319.44
2022-08-12T10:28:07.097Z,101316.47
2022-08-12T10:30:46.857Z,101312.16
2022-08-12T10:33:31.960Z,101308.56
2022-08-12T10:36:02.135Z,101304.91
2022-08-12T10:38:41.109Z,101288.84
2022-08-12T10:41:57.442Z,101295.53
2022-08-12T10:44:17.789Z,101276.22
2022-08-12T10:46:49.385Z,101257.56
2022-08-12T10:50:04.912Z,101271.06
2022-08-12T10:52:34.270Z,101242.84
2022-08-12T10:54:56.627Z,101244.31
2022-08-12T10:58:28.308Z,101245.69
2022-08-12T11:00:34.376Z,101240.50
2022-08-12T11:04:34.236Z,101249.94
2022-08-12T11:07:06.339Z,101244.63
2022-08-12T11:08:43.246Z,101232.63
2022-08-12T11:11:27.743Z,101235.50
2022-08-12T11:14:13.158Z,101228.25
2022-08-12T11:17:42.880Z,101229.91
2022-08-12T11:19:46.332Z,101212.78
2022-08-12T11:22:15.759Z,101206.91
2022-08-12T11:24:51.176Z,101219.53
2022-08-12T11:27:21.274Z,101191.13
2022-08-12T11:30:01.667Z,101188.31
2022-08-12T11:32:38.503Z,101186.03
2022-08-12T11:35:08.389Z,101182.66
2022-08-12T11:37:55.873Z,101195.59
2022-08-12T11:40:26.606Z,101195.97
2022-08-12T11:43:17.200Z,101186.72
2022-08-12T11:45:47.708Z,101174.84
2022-08-12T11:48:27.013Z,101172.03
2022-08-12T11:50:56.294Z,101166.56
2022-08-12T11:53:57.811Z,101162.47
2022-08-12T11:56:13.227Z,101165.88
2022-08-12T12:02:01.678Z,101163.16
2022-08-12T12:04:22.634Z,101147.09
2022-08-12T12:07:07.141Z,101138.78
2022-08-12T12:09:52.954Z,101155.25
2022-08-12T12:12:23.000Z,101148.56
2022-08-12T12:14:54.896Z,101130.94
2022-08-12T12:17:24.673Z,101135.00
2022-08-12T12:19:56.012Z,101125.22
2022-08-12T12:22:30.759Z,101136.41
2022-08-12T12:25:12.578Z,101133.38
2022-08-12T12:28:06.330Z,101125.66
2022-08-12T12:30:39.077Z,101116.59
2022-08-12T12:33:22.773Z,101116.94
2022-08-12T12:36:16.724Z,101116.94
2022-08-12T12:38:38.662Z,101106.84
2022-08-12T12:41:16.916Z,101101.66
2022-08-12T12:44:03.803Z,101113.84
2022-08-12T12:46:39.991Z,101093.13
2022-08-12T12:49:19.462Z,101084.25
2022-08-12T12:52:18.356Z,101064.88
2022-08-12T12:54:52.695Z,101079.56
2022-08-12T12:57:58.846Z,101069.72
2022-08-12T13:00:17.779Z,101080.31
2022-08-12T13:02:57.914Z,101082.66
2022-08-12T13:05:29.004Z,101082.25
2022-08-12T13:08:01.215Z,101067.88
2022-08-12T13:10:36.876Z,101073.94
2022-08-12T13:14:06.528Z,101065.09
2022-08-12T13:15:59.227Z,101083.59
2022-08-12T13:18:36.405Z,101065.59
2022-08-12T13:21:15.893Z,101067.44
2022-08-12T13:23:58.225Z,101054.50
2022-08-12T13:26:35.257Z,101061.00
2022-08-12T13:29:05.441Z,101069.91
2022-08-12T13:32:17.597Z,101071.34
2022-08-12T13:34:32.947Z,101061.22
2022-08-12T13:37:09.188Z,101057.31
2022-08-12T13:39:38.308Z,101061.56
2022-08-12T13:45:05.863Z,101043.53
2022-08-12T13:47:55.754Z,101039.69
2022-08-12T13:50:29.932Z,101037.13
2022-08-12T13:53:24.322Z,101025.69
2022-08-12T13:56:02.174Z,101056.53
2022-08-12T13:58:35.070Z,101046.72
2022-08-12T14:01:12.864Z,101033.22
2022-08-12T14:03:51.214Z,101047.72
2022-08-12T14:09:29.467Z,101017.97
2022-08-12T14:12:10.217Z,101016.09
2022-08-12T14:14:55.575Z,101026.38
2022-08-12T14:17:52.197Z,101007.78
2022-08-12T14:24:05.797Z,101008.84
2022-08-12T14:26:54.542Z,101007.28
2022-08-12T14:29:55.782Z,101001.84
2022-08-12T14:32:16.709Z,101004.47
2022-08-12T14:34:45.528Z,101003.91
2022-08-12T14:37:56.266Z,101002.34
2022-08-12T14:40:06.816Z,101002.31
2022-08-12T14:42:48.406Z,100999.25
2022-08-12T14:45:22.841Z,101001.09
2022-08-12T14:47:58.550Z,101009.59
2022-08-12T14:50:57.318Z,100987.47
2022-08-12T14:59:57.589Z,100996.81
2022-08-12T15:02:21.732Z,100991.78
2022-08-12T15:04:59.173Z,100990.13
2022-08-12T15:07:33.550Z,100987.91
2022-08-12T15:10:13.373Z,100986.97
2022-08-12T15:12:43.358Z,100980.38
2022-08-12T15:15:12.254Z,100976.91
2022-08-12T15:17:40.640Z,100983.75
2022-08-12T15:20:31.456Z,100968.06
2022-08-12T15:22:57.913Z,100969.00
2022-08-12T15:25:26.186Z,100980.47
2022-08-12T15:28:10.985Z,100970.13
2022-08-12T15:30:47.607Z,100963.78
2022-08-12T15:33:18.933Z,100963.69
2022-08-12T15:35:53.718Z,100968.13
2022-08-12T15:38:24.995Z,100976.53
2022-08-12T15:40:55.050Z,100972.69
2022-08-12T15:43:35.457Z,100978.56
2022-08-12T15:46:16.210Z,100964.81
2022-08-12T15:48:46.660Z,100948.97
2022-08-12T15:51:58.240Z,100963.44
2022-08-12T15:54:35.041Z,100959.94
2022-08-12T15:57:08.294Z,100965.78
2022-08-12T15:59:59.909Z,100960.91
2022-08-12T16:02:29.374Z,100952.97
2022-08-12T16:04:57.761Z,100972.47
2022-08-12T16:07:31.238Z,100954.13
2022-08-12T16:10:08.317Z,100951.97
2022-08-12T16:12:43.319Z,100953.97
2022-08-12T16:15:14.756Z,100940.03
2022-08-12T16:18:14.960Z,100943.66
2022-08-12T16:20:35.171Z,100930.50
2022-08-12T16:23:36.524Z,100940.06
2022-08-12T16:26:05.190Z,100935.81
2022-08-12T16:28:34.513Z,100921.56
2022-08-12T16:31:05.680Z,100929.13
2022-08-12T16:33:59.233Z,100941.81
2022-08-12T16:36:29.853Z,100933.09
2022-08-12T16:39:01.675Z,100942.84
2022-08-12T16:41:37.846Z,100939.00
2022-08-12T16:44:08.297Z,100939.81
2022-08-12T16:46:39.882Z,100939.91
2022-08-12T16:49:08.659Z,100930.56
2022-08-12T16:51:45.648Z,100939.19
2022-08-12T16:54:16.571Z,100931.75
2022-08-12T16:56:54.785Z,100929.91
2022-08-12T16:59:31.100Z,100929.25
2022-08-12T17:02:18.019Z,100927.56
2022-08-12T17:05:04.559Z,100925.47
2022-08-12T17:07:43.537Z,100931.19
2022-08-12T17:10:18.370Z,100926.53
2022-08-12T17:13:10.047Z,100931.41
2022-08-12T17:15:50.312Z,100926.31
2022-08-12T17:18:43.743Z,100922.81
2022-08-12T17:21:10.080Z,100911.94
2022-08-12T17:23:47.902Z,100922.34
2022-08-12T17:26:24.742Z,100926.47
2022-08-12T17:28:57.705Z,100919.84
2022-08-12T17:31:59.525Z,100921.00
2022-08-12T17:34:38.500Z,100923.31
2022-08-12T17:37:10.602Z,100903.81
2022-08-12T17:40:13.645Z,100901.50
2022-08-12T17:42:34.932Z,100920.75
2022-08-12T17:45:18.011Z,100923.34
2022-08-12T17:48:04.828Z,100928.22
2022-08-12T17:50:38.112Z,100925.09
2022-08-12T17:53:08.074Z,100941.69
2022-08-12T17:55:47.309Z,100926.16
2022-08-12T17:58:18.202Z,100930.56
2022-08-12T18:00:48.987Z,100940.06
2022-08-12T18:04:05.390Z,100944.38
2022-08-12T18:06:14.060Z,100937.31
2022-08-12T18:08:55.101Z,100920.97
2022-08-12T18:12:03.125Z,100927.59
2022-08-12T18:14:30.829Z,100941.78
2022-08-12T18:17:02.646Z,100941.97
2022-08-12T18:20:03.651Z,100945.63
2022-08-12T18:22:29.099Z,100955.03
2022-08-12T18:25:04.020Z,100943.97
2022-08-12T18:27:43.874Z,100957.47
2022-08-12T18:30:20.545Z,100957.53
2022-08-12T18:33:03.838Z,100959.97
2022-08-12T18:35:47.617Z,100970.69
2022-08-12T18:38:25.015Z,100966.31
2022-08-12T18:41:21.209Z,100979.19
2022-08-12T18:43:59.966Z,100971.59
2022-08-12T18:46:37.441Z,100975.19
2022-08-12T18:49:17.929Z,100984.19
2022-08-12T18:51:55.199Z,100982.00
2022-08-12T18:54:34.132Z,100976.31
2022-08-12T18:57:15.526Z,100978.19
2022-08-12T19:00:01.516Z,100977.75
2022-08-12T19:02:40.468Z,100985.69
2022-08-12T19:05:11.836Z,100995.50
2022-08-12T19:08:00.378Z,100984.75
2022-08-12T19:10:32.980Z,100997.31
2022-08-12T19:13:23.129Z,101009.16
2022-08-12T19:15:54.178Z,101009.59
2022-08-12T19:18:29.964Z,101007.13
2022-08-12T19:21:06.312Z,100996.75
2022-08-12T19:23:35.948Z,101027.47
2022-08-12T19:26:05.341Z,101026.63
2022-08-12T19:28:39.048Z,101032.50
2022-08-12T19:31:55.542Z,101032.63
2022-08-12T19:35:54.167Z,101014.38
2022-08-12T19:37:26.769Z,101036.47
2022-08-12T19:40:10.317Z,101040.75
2022-08-12T19:42:57.593Z,101044.16
2022-08-12T19:45:42.294Z,101048.69
2022-08-12T19:48:18.316Z,101046.69
2022-08-12T19:50:50.587Z,101053.06
2022-08-12T19:53:23.878Z,101046.00
2022-08-12T19:55:54.870Z,101056.88
2022-08-12T19:58:25.540Z,101068.38
2022-08-12T20:00:55.856Z,101093.03
2022-08-12T20:03:38.997Z,101113.34
2022-08-12T20:06:15.864Z,101112.59
2022-08-12T20:08:56.681Z,101127.25
2022-08-12T20:12:15.177Z,101122.53
2022-08-12T20:14:19.248Z,101148.50
2022-08-12T20:16:52.717Z,101149.72
2022-08-12T20:19:24.608Z,101167.31
2022-08-12T20:22:14.426Z,101163.34
2022-08-12T20:24:46.326Z,101161.03
2022-08-12T20:27:29.411Z,101162.16
2022-08-12T20:30:07.105Z,101155.09
2022-08-12T20:32:47.623Z,101156.00
2022-08-12T20:35:24.270Z,101146.66
2022-08-12T20:38:06.517Z,101135.25
2022-08-12T20:40:42.207Z,101147.28
2022-08-12T20:43:19.038Z,101145.31
2022-08-12T20:45:57.538Z,101107.59
2022-08-12T20:48:29.312Z,101108.06
2022-08-12T20:51:04.712Z,101109.25
2022-08-12T20:53:58.125Z,101120.50
2022-08-12T20:56:30.186Z,101117.06
2022-08-12T20:59:01.233Z,101110.84
2022-08-12T21:01:46.750Z,101139.25
2022-08-12T21:04:35.711Z,101154.16
2022-08-12T21:07:09.563Z,101182.16
2022-08-12T21:09:41.903Z,101183.38
2022-08-12T21:12:28.677Z,101188.97
2022-08-12T21:15:23.807Z,101215.50
2022-08-12T21:18:10.532Z,101270.53
2022-08-12T21:20:49.054Z,101335.81
2022-08-12T21:23:19.058Z,101347.78
2022-08-12T21:25:48.174Z,101374.19
2022-08-12T21:28:18.953Z,101358.00
2022-08-12T21:31:11.611Z,101357.34
2022-08-12T21:33:58.706Z,101357.97
2022-08-12T21:36:34.107Z,101359.13
2022-08-12T21:39:18.830Z,101342.84
2022-08-12T21:41:50.161Z,101350.94
2022-08-12T21:44:24.837Z,101353.97
2022-08-12T21:47:21.003Z,101327.69
2022-08-12T21:50:02.140Z,101323.25
2022-08-12T21:52:34.746Z,101329.91
2022-08-12T21:55:18.389Z,101273.31
2022-08-12T21:57:53.690Z,101263.97
2022-08-12T22:00:32.848Z,101267.91
2022-08-12T22:04:01.626Z,101256.59
2022-08-12T22:06:20.267Z,101272.81
2022-08-12T22:09:02.624Z,101271.19
2022-08-12T22:11:41.744Z,101305.44
2022-08-12T22:14:21.738Z,101329.78
2022-08-12T22:16:53.648Z,101317.41
2022-08-12T22:19:22.993Z,101338.88
2022-08-12T22:21:55.521Z,101415.69
2022-08-12T22:24:26.700Z,101462.47
2022-08-12T22:26:58.031Z,101508.97
2022-08-12T22:29:43.858Z,101542.44
2022-08-12T22:32:12.267Z,101631.34
2022-08-12T22:34:40.430Z,101655.88
2022-08-12T22:37:19.665Z,101722.63
2022-08-12T22:39:49.050Z,101771.53
2022-08-12T22:42:34.661Z,101793.34
2022-08-12T22:45:20.151Z,101785.97
2022-08-12T22:47:55.588Z,101794.19
2022-08-12T22:50:28.556Z,101774.53
2022-08-12T22:53:14.538Z,101752.91
2022-08-12T22:56:00.794Z,101706.09
2022-08-12T22:58:33.686Z,101706.50
2022-08-12T23:01:03.453Z,101695.34
2022-08-12T23:03:48.788Z,101684.53
2022-08-12T23:06:19.956Z,101661.38
2022-08-12T23:08:50.784Z,101650.28
2022-08-12T23:11:23.481Z,101647.31
2022-08-12T23:13:56.974Z,101653.13
2022-08-12T23:16:31.255Z,101646.03
2022-08-12T23:19:10.870Z,101637.38
2022-08-12T23:22:06.421Z,101643.78
2022-08-12T23:24:55.869Z,101619.81
2022-08-12T23:27:52.052Z,101641.50
2022-08-12T23:30:32.320Z,101627.63
2022-08-12T23:33:20.377Z,101618.41
2022-08-12T23:36:02.580Z,101615.31
2022-08-12T23:38:32.679Z,101620.22
2022-08-12T23:41:13.641Z,101602.53
2022-08-12T23:43:48.767Z,101599.38
2022-08-12T23:46:19.878Z,101601.53
2022-08-12T23:48:50.475Z,101585.53
2022-08-12T23:51:24.534Z,101589.22
2022-08-12T23:53:56.275Z,101584.06
2022-08-12T23:56:33.635Z,101582.59
2022-08-12T23:59:02.190Z,101585.28
